createdAt,value
2023-03-13T00:00:34.014Z,97.50
2023-03-13T00:03:56.179Z,97.30
2023-03-13T00:07:18.412Z,97.20
2023-03-13T00:10:41.197Z,97.30
2023-03-13T00:14:04.386Z,97.20
2023-03-13T00:17:26.534Z,97.10
2023-03-13T00:20:50.597Z,97.10
2023-03-13T00:24:12.800Z,96.90
2023-03-13T00:27:35.076Z,96.80
2023-03-13T00:31:01.161Z,96.90
2023-03-13T00:34:26.458Z,96.80
2023-03-13T00:37:48.676Z,97.20
2023-03-13T00:41:15.439Z,96.80
2023-03-13T00:44:37.546Z,96.80
2023-03-13T00:47:59.756Z,96.80
2023-03-13T00:51:23.792Z,96.70
2023-03-13T00:54:46.359Z,96.70
2023-03-13T00:58:08.961Z,96.70
2023-03-13T01:01:33.125Z,96.60
2023-03-13T01:04:56.846Z,96.60
2023-03-13T01:08:20.235Z,96.50
2023-03-13T01:11:43.071Z,96.50
2023-03-13T01:15:05.426Z,96.40
2023-03-13T01:18:27.583Z,96.30
2023-03-13T01:21:49.794Z,96.30
2023-03-13T01:25:11.934Z,96.20
2023-03-13T01:28:34.683Z,96.20
2023-03-13T01:31:56.886Z,96.20
2023-03-13T01:35:20.560Z,96.10
2023-03-13T01:38:44.593Z,96.10
2023-03-13T01:42:07.546Z,96.10
2023-03-13T01:45:48.544Z,96.00
2023-03-13T01:49:20.244Z,96.00
2023-03-13T01:52:50.163Z,95.90
2023-03-13T01:56:28.904Z,95.90
2023-03-13T01:59:51.172Z,95.90
2023-03-13T02:03:15.319Z,95.80
2023-03-13T02:06:38.807Z,95.70
2023-03-13T02:10:01.158Z,95.80
2023-03-13T02:13:24.049Z,95.70
2023-03-13T02:16:48.893Z,95.70
2023-03-13T02:20:11.654Z,95.70
2023-03-13T02:23:41.581Z,95.70
2023-03-13T02:27:04.129Z,95.70
2023-03-13T02:30:28.403Z,95.60
2023-03-13T02:33:50.663Z,95.60
2023-03-13T02:37:15.368Z,95.60
2023-03-13T02:40:40.145Z,95.70
2023-03-13T02:44:03.587Z,95.70
2023-03-13T02:47:25.918Z,95.80
2023-03-13T02:50:49.785Z,95.80
2023-03-13T02:54:14.225Z,95.70
2023-03-13T02:57:37.701Z,95.70
2023-03-13T03:01:07.706Z,95.70
2023-03-13T03:04:32.798Z,95.70
2023-03-13T03:07:54.986Z,95.70
2023-03-13T03:11:18.878Z,95.80
2023-03-13T03:14:45.517Z,95.80
2023-03-13T03:18:07.783Z,95.80
2023-03-13T03:21:30.083Z,96.20
2023-03-13T03:24:52.306Z,95.90
2023-03-13T03:28:14.458Z,95.80
2023-03-13T03:31:38.217Z,95.80
2023-03-13T03:35:01.093Z,96.00
2023-03-13T03:38:23.967Z,96.00
2023-03-13T03:41:46.302Z,96.00
2023-03-13T03:45:09.070Z,96.00
2023-03-13T03:48:31.324Z,96.00
2023-03-13T03:51:53.753Z,96.00
2023-03-13T03:55:22.440Z,96.10
2023-03-13T03:58:44.852Z,96.10
2023-03-13T04:02:12.650Z,96.10
2023-03-13T04:05:36.661Z,96.20
2023-03-13T04:08:58.847Z,96.20
2023-03-13T04:12:23.380Z,96.20
2023-03-13T04:15:48.840Z,96.20
2023-03-13T04:19:12.042Z,96.30
2023-03-13T04:22:34.372Z,96.20
2023-03-13T04:25:57.545Z,96.30
2023-03-13T04:29:19.802Z,96.30
2023-03-13T04:32:51.781Z,96.40
2023-03-13T04:36:13.989Z,96.40
2023-03-13T04:39:55.482Z,96.40
2023-03-13T04:43:32.688Z,96.50
2023-03-13T04:47:29.958Z,96.50
2023-03-13T04:51:24.215Z,96.40
2023-03-13T04:55:06.792Z,96.50
2023-03-13T04:58:49.217Z,96.60
2023-03-13T05:02:26.195Z,96.60
2023-03-13T05:06:08.625Z,96.60
2023-03-13T05:09:57.530Z,96.60
2023-03-13T05:13:39.937Z,96.60
2023-03-13T05:17:25.412Z,96.60
2023-03-13T05:21:06.449Z,96.70
2023-03-13T05:24:47.139Z,96.80
2023-03-13T05:28:43.770Z,96.70
2023-03-13T05:32:24.268Z,96.70
2023-03-13T05:36:21.537Z,97.00
2023-03-13T05:39:59.917Z,96.60
2023-03-13T05:43:34.656Z,96.50
2023-03-13T05:47:18.685Z,96.40
2023-03-13T05:50:54.778Z,96.40
2023-03-13T05:54:35.277Z,96.40
2023-03-13T05:58:23.612Z,96.30
2023-03-13T06:02:02.748Z,96.30
2023-03-13T06:05:33.909Z,96.20
2023-03-13T06:08:57.844Z,96.10
2023-03-13T06:12:23.474Z,96.10
2023-03-13T06:15:53.065Z,96.10
2023-03-13T06:19:32.062Z,96.30
2023-03-13T06:22:54.211Z,96.20
2023-03-13T06:26:16.386Z,96.30
2023-03-13T06:29:38.579Z,96.20
2023-03-13T06:33:00.868Z,96.30
2023-03-13T06:36:23.960Z,96.30
2023-03-13T06:39:46.144Z,96.20
2023-03-13T06:43:08.265Z,96.10
2023-03-13T06:46:31.408Z,96.10
2023-03-13T06:49:53.631Z,96.00
2023-03-13T06:53:17.248Z,96.20
2023-03-13T06:56:39.469Z,96.40
2023-03-13T07:00:01.720Z,97.10
2023-03-13T07:03:24.284Z,96.80
2023-03-13T07:06:46.469Z,97.00
2023-03-13T07:10:10.616Z,97.00
2023-03-13T07:13:33.042Z,97.00
2023-03-13T07:16:55.369Z,96.80
2023-03-13T07:20:17.939Z,97.00
2023-03-13T07:23:40.283Z,96.70
2023-03-13T07:27:07.603Z,96.50
2023-03-13T07:30:30.247Z,96.10
2023-03-13T07:33:56.343Z,96.60
2023-03-13T07:37:18.750Z,96.60
2023-03-13T07:40:47.117Z,96.50
2023-03-13T07:44:09.469Z,96.40
2023-03-13T07:47:33.701Z,96.10
2023-03-13T07:50:56.228Z,95.90
2023-03-13T07:54:18.458Z,95.90
2023-03-13T07:57:40.717Z,95.70
2023-03-13T08:01:10.271Z,95.50
2023-03-13T08:04:32.452Z,95.50
2023-03-13T08:07:54.649Z,95.40
2023-03-13T08:11:18.261Z,95.60
2023-03-13T08:14:40.376Z,95.60
2023-03-13T08:18:02.582Z,95.40
2023-03-13T08:21:26.478Z,95.00
2023-03-13T08:24:48.721Z,94.60
2023-03-13T08:28:11.464Z,94.80
2023-03-13T08:31:35.317Z,94.90
2023-03-13T08:34:57.528Z,94.80
2023-03-13T08:38:19.747Z,93.70
2023-03-13T08:41:41.996Z,92.40
2023-03-13T08:45:05.130Z,93.60
2023-03-13T08:48:28.246Z,93.50
2023-03-13T08:51:50.456Z,92.50
2023-03-13T08:55:12.670Z,91.30
2023-03-13T08:58:34.849Z,88.50
2023-03-13T09:01:57.147Z,87.50
2023-03-13T09:05:19.339Z,85.90
2023-03-13T09:08:41.761Z,89.60
2023-03-13T09:12:03.939Z,91.30
2023-03-13T09:15:26.157Z,92.50
2023-03-13T09:18:48.678Z,93.00
2023-03-13T09:22:10.812Z,93.30
2023-03-13T09:25:33.021Z,93.50
2023-03-13T09:28:55.399Z,93.50
2023-03-13T09:32:20.455Z,93.20
2023-03-13T09:35:42.854Z,93.10
2023-03-13T09:39:05.092Z,93.20
2023-03-13T09:42:44.245Z,93.90
2023-03-13T09:46:09.452Z,94.20
2023-03-13T09:49:34.909Z,94.10
2023-03-13T09:53:04.382Z,93.90
2023-03-13T09:56:30.483Z,93.70
2023-03-13T09:59:55.804Z,93.10
2023-03-13T10:03:20.806Z,92.70
2023-03-13T10:06:44.096Z,93.10
2023-03-13T10:10:11.346Z,93.60
2023-03-13T10:13:39.676Z,93.60
2023-03-13T10:17:20.718Z,93.80
2023-03-13T10:20:43.555Z,93.80
2023-03-13T10:24:17.749Z,93.70
2023-03-13T10:27:51.062Z,93.60
2023-03-13T10:31:25.647Z,93.80
2023-03-13T10:34:51.497Z,93.90
2023-03-13T10:38:15.443Z,93.90
2023-03-13T10:41:38.556Z,94.00
2023-03-13T10:45:01.646Z,94.20
2023-03-13T10:48:25.095Z,94.10
2023-03-13T10:51:54.829Z,94.80
2023-03-13T10:55:18.732Z,95.00
2023-03-13T10:58:43.783Z,94.30
2023-03-13T11:02:20.616Z,94.20
2023-03-13T11:05:43.284Z,94.00
2023-03-13T11:09:14.413Z,93.90
2023-03-13T11:12:36.621Z,93.60
2023-03-13T11:16:01.271Z,93.20
2023-03-13T11:19:43.765Z,92.90
2023-03-13T11:23:13.887Z,92.60
2023-03-13T11:26:38.169Z,92.50
2023-03-13T11:30:12.826Z,92.30
2023-03-13T11:33:53.253Z,91.60
2023-03-13T11:37:16.492Z,91.80
2023-03-13T11:40:45.628Z,91.60
2023-03-13T11:44:10.805Z,91.40
2023-03-13T11:47:32.972Z,91.60
2023-03-13T11:50:56.479Z,91.90
2023-03-13T11:54:18.643Z,92.50
2023-03-13T11:57:40.753Z,92.60
2023-03-13T12:01:08.723Z,92.90
2023-03-13T12:04:35.481Z,93.40
2023-03-13T12:08:01.866Z,92.50
2023-03-13T12:11:27.053Z,93.00
2023-03-13T12:15:00.115Z,92.10
2023-03-13T12:18:22.266Z,92.50
2023-03-13T12:21:50.416Z,92.60
2023-03-13T12:25:12.635Z,92.00
2023-03-13T12:28:43.032Z,92.30
2023-03-13T12:32:11.036Z,92.20
2023-03-13T12:35:33.690Z,91.70
2023-03-13T12:39:00.155Z,92.30
2023-03-13T12:42:46.054Z,92.80
2023-03-13T12:46:27.029Z,93.10
2023-03-13T12:49:55.466Z,93.20
2023-03-13T12:53:36.548Z,93.10
2023-03-13T12:56:58.655Z,92.60
2023-03-13T13:00:22.414Z,92.30
2023-03-13T13:03:59.149Z,92.20
2023-03-13T13:07:23.708Z,91.80
2023-03-13T13:10:45.876Z,91.80
2023-03-13T13:14:17.119Z,91.50
2023-03-13T13:17:44.477Z,91.30
2023-03-13T13:21:06.950Z,90.90
2023-03-13T13:24:39.750Z,90.90
2023-03-13T13:28:22.099Z,90.70
2023-03-13T13:31:47.482Z,91.30
2023-03-13T13:35:12.633Z,91.00
2023-03-13T13:38:40.194Z,90.80
2023-03-13T13:42:22.401Z,91.00
2023-03-13T13:45:58.067Z,91.70
2023-03-13T13:49:21.174Z,91.80
2023-03-13T13:52:43.547Z,91.80
2023-03-13T13:56:25.630Z,91.90
2023-03-13T14:00:06.849Z,91.90
2023-03-13T14:03:33.026Z,91.40
2023-03-13T14:06:57.672Z,91.30
2023-03-13T14:10:30.763Z,91.10
2023-03-13T14:14:10.977Z,91.10
2023-03-13T14:17:38.670Z,91.10
2023-03-13T14:21:01.611Z,91.40
2023-03-13T14:24:23.732Z,91.00
2023-03-13T14:27:47.167Z,91.00
2023-03-13T14:31:10.014Z,91.00
2023-03-13T14:34:32.898Z,90.80
2023-03-13T14:38:01.529Z,90.90
2023-03-13T14:41:26.591Z,91.20
2023-03-13T14:44:50.348Z,90.80
2023-03-13T14:48:23.379Z,90.70
2023-03-13T14:51:45.700Z,90.70
2023-03-13T14:55:25.745Z,90.60
2023-03-13T14:58:48.804Z,90.50
2023-03-13T15:02:16.521Z,90.40
2023-03-13T15:05:38.780Z,90.00
2023-03-13T15:09:09.689Z,89.80
2023-03-13T15:12:32.592Z,89.40
2023-03-13T15:15:54.858Z,89.20
2023-03-13T15:19:17.064Z,89.00
2023-03-13T15:22:40.546Z,89.00
2023-03-13T15:26:02.730Z,88.70
2023-03-13T15:29:24.889Z,88.30
2023-03-13T15:32:47.414Z,88.60
2023-03-13T15:36:10.287Z,88.60
2023-03-13T15:39:32.477Z,88.50
2023-03-13T15:42:55.034Z,88.50
2023-03-13T15:46:17.297Z,88.20
2023-03-13T15:49:39.520Z,88.40
2023-03-13T15:53:01.858Z,88.20
2023-03-13T15:56:24.037Z,88.00
2023-03-13T15:59:46.271Z,88.10
2023-03-13T16:03:19.289Z,88.30
2023-03-13T16:06:41.500Z,88.40
2023-03-13T16:10:04.322Z,88.70
2023-03-13T16:13:26.748Z,88.30
2023-03-13T16:16:49.842Z,88.20
2023-03-13T16:20:19.179Z,88.50
2023-03-13T16:23:41.288Z,88.60
2023-03-13T16:27:10.197Z,88.80
2023-03-13T16:30:33.546Z,90.00
2023-03-13T16:33:56.330Z,89.70
2023-03-13T16:37:19.058Z,89.70
2023-03-13T16:40:41.272Z,89.90
2023-03-13T16:44:03.506Z,89.30
2023-03-13T16:47:28.303Z,89.10
2023-03-13T16:50:50.392Z,88.70
2023-03-13T16:54:12.616Z,88.20
2023-03-13T16:57:34.775Z,88.40
2023-03-13T17:01:05.378Z,88.30
2023-03-13T17:04:28.204Z,88.70
2023-03-13T17:07:51.025Z,90.00
2023-03-13T17:11:15.983Z,89.90
2023-03-13T17:14:40.087Z,90.10
2023-03-13T17:18:02.497Z,90.20
2023-03-13T17:21:25.774Z,90.20
2023-03-13T17:24:49.102Z,90.30
2023-03-13T17:28:14.156Z,90.30
2023-03-13T17:31:39.836Z,90.20
2023-03-13T17:35:02.395Z,90.50
2023-03-13T17:38:24.519Z,90.30
2023-03-13T17:41:46.683Z,90.30
2023-03-13T17:45:08.960Z,90.20
2023-03-13T17:48:31.133Z,90.10
2023-03-13T17:51:53.260Z,90.20
2023-03-13T17:55:15.478Z,90.10
2023-03-13T17:58:37.602Z,89.70
2023-03-13T18:01:59.803Z,89.70
2023-03-13T18:05:22.084Z,90.00
2023-03-13T18:08:44.943Z,90.00
2023-03-13T18:12:08.980Z,89.90
2023-03-13T18:15:31.113Z,89.80
2023-03-13T18:18:53.895Z,89.60
2023-03-13T18:22:17.645Z,89.80
2023-03-13T18:25:39.791Z,89.40
2023-03-13T18:29:12.589Z,89.30
2023-03-13T18:32:34.799Z,89.40
2023-03-13T18:35:57.074Z,89.10
2023-03-13T18:39:20.172Z,90.20
2023-03-13T18:42:42.399Z,90.40
2023-03-13T18:46:04.699Z,90.60
2023-03-13T18:49:26.956Z,90.80
2023-03-13T18:52:49.166Z,90.70
2023-03-13T18:56:16.040Z,90.70
2023-03-13T18:59:38.118Z,90.80
2023-03-13T19:03:00.270Z,90.80
2023-03-13T19:06:29.926Z,90.80
2023-03-13T19:09:53.316Z,90.70
2023-03-13T19:13:15.420Z,90.70
2023-03-13T19:16:39.997Z,90.70
2023-03-13T19:20:02.205Z,90.80
2023-03-13T19:23:24.803Z,91.30
2023-03-13T19:26:49.491Z,91.30
2023-03-13T19:30:15.848Z,91.00
2023-03-13T19:33:38.001Z,91.70
2023-03-13T19:37:00.212Z,91.70
2023-03-13T19:40:23.862Z,91.60
2023-03-13T19:43:47.976Z,91.90
2023-03-13T19:47:13.322Z,91.80
2023-03-13T19:50:35.907Z,92.00
2023-03-13T19:53:58.312Z,92.00
2023-03-13T19:57:20.600Z,92.20
2023-03-13T20:00:42.842Z,92.10
2023-03-13T20:04:05.125Z,92.30
2023-03-13T20:07:27.336Z,92.10
2023-03-13T20:10:50.087Z,92.40
2023-03-13T20:14:12.472Z,92.50
2023-03-13T20:17:34.763Z,92.70
2023-03-13T20:20:56.901Z,92.90
2023-03-13T20:24:19.127Z,92.80
2023-03-13T20:27:41.311Z,93.10
2023-03-13T20:31:03.884Z,93.00
2023-03-13T20:34:26.243Z,92.30
2023-03-13T20:37:50.088Z,92.30
2023-03-13T20:41:12.826Z,92.40
2023-03-13T20:44:35.029Z,92.70
2023-03-13T20:47:57.514Z,93.50
2023-03-13T20:51:19.662Z,93.00
2023-03-13T20:54:41.862Z,93.00
2023-03-13T20:58:04.041Z,92.90
2023-03-13T21:01:27.556Z,92.60
2023-03-13T21:04:50.098Z,92.20
2023-03-13T21:08:12.262Z,92.40
2023-03-13T21:11:34.424Z,92.30
2023-03-13T21:14:58.102Z,92.30
2023-03-13T21:18:20.261Z,92.60
2023-03-13T21:21:42.421Z,93.10
2023-03-13T21:25:05.043Z,92.60
2023-03-13T21:28:27.619Z,92.50
2023-03-13T21:31:49.907Z,92.50
2023-03-13T21:35:12.794Z,92.30
2023-03-13T21:38:35.238Z,92.40
2023-03-13T21:41:57.364Z,92.30
2023-03-13T21:45:19.491Z,92.30
2023-03-13T21:48:42.296Z,92.20
2023-03-13T21:52:04.645Z,92.50
2023-03-13T21:55:26.873Z,91.90
2023-03-13T21:58:49.090Z,91.90
2023-03-13T22:02:11.988Z,92.00
2023-03-13T22:05:34.197Z,91.90
2023-03-13T22:08:56.364Z,92.00
2023-03-13T22:12:18.676Z,92.20
2023-03-13T22:15:43.420Z,91.90
2023-03-13T22:19:05.635Z,91.90
2023-03-13T22:22:27.809Z,92.50
2023-03-13T22:25:50.056Z,92.30
2023-03-13T22:29:12.271Z,92.30
2023-03-13T22:32:34.461Z,92.30
2023-03-13T22:35:56.769Z,92.30
2023-03-13T22:39:19.004Z,92.40
2023-03-13T22:42:41.129Z,92.30
2023-03-13T22:46:04.615Z,92.30
2023-03-13T22:49:26.814Z,92.60
2023-03-13T22:52:48.934Z,92.70
2023-03-13T22:56:12.127Z,92.60
2023-03-13T22:59:34.245Z,92.20
2023-03-13T23:02:56.512Z,92.20
2023-03-13T23:06:19.907Z,92.10
2023-03-13T23:09:42.086Z,92.00
2023-03-13T23:13:04.525Z,91.90
2023-03-13T23:16:26.662Z,92.40
2023-03-13T23:19:48.816Z,91.90
2023-03-13T23:23:10.943Z,92.10
2023-03-13T23:26:33.080Z,92.00
2023-03-13T23:29:55.311Z,92.10
2023-03-13T23:33:17.520Z,92.10
2023-03-13T23:36:40.048Z,92.10
2023-03-13T23:40:02.979Z,92.00
2023-03-13T23:43:25.072Z,92.00
2023-03-13T23:46:47.267Z,92.00
2023-03-13T23:50:12.873Z,91.80
2023-03-13T23:53:39.331Z,92.00
2023-03-13T23:57:01.420Z,91.70
